Startpagina
METAR-TAF:

METAR-TAF

Vliegvelden :

Aeroporto Internacional do Recife

Recife, Pernambuco, Brazilië

breedte: 08-08S, lengte: 034-55W, hoogte: 19 m

Actueel weer

Dit bericht is 45 minuten geleden gemaakt, om 02:00 UTC
Wind 14 kt uit het zuidzuidoosten
Temperatuur 23°C
Vochtigheid 83%
Druk 1019 hPa
Zicht 10 km of meer
Verspreide wolken op 2200 ft
Verspreide wolken op 7000 ft

METAR: SBRF 210200Z 15014KT 9999 SCT022 SCT070 23/20 Q1019

Tijdstip: 23:45 (02:45 UTC)

Verwachting

Dit bericht is 4 uur en het 45 minuten geleden gemaakt, om 22:00 UTC
Verwachting geldig van 21 om 00 UTC tot 21 om 24 UTC
Wind 12 kt uit het zuidoosten
Zicht: 8000 m
Verspreide wolken op 2000 ft

TAF: SBRF 202200Z 2100/2124 14012KT 8000 SCT020 TN24/2108Z TX27/2115Z RMK PCH

Waarnemingen en weersverwachtingen van meer dan 4000 vliegvelden (METAR en TAF).

De beschikbare stations zijn de gele en rode punten op de kaart.

Ga met uw muis naar het station om de naam te zien.

Klik dan om waarnemingen en weersverwachtingen te zien.

kaart wijzigen: klik op de groene knoppen met een zwart kruis om in te zoomen, op de groene knop met een streepje om uit te zoomen of op de groene pijlen voor aangrenzende kaarten.


METAR-TAF: